createdAt,value
2022-08-07T00:00:05.681Z,998.52
2022-08-07T00:01:42.970Z,998.52
2022-08-07T00:02:41.198Z,998.49
2022-08-07T00:03:10.897Z,998.5
2022-08-07T00:04:15.519Z,998.45
2022-08-07T00:05:14.505Z,998.45
2022-08-07T00:06:16.156Z,998.4
2022-08-07T00:07:17.837Z,998.44
2022-08-07T00:08:19.565Z,998.39
2022-08-07T00:09:22.664Z,998.4
2022-08-07T00:10:27.282Z,998.43
2022-08-07T00:11:29.969Z,998.4
2022-08-07T00:12:26.608Z,998.43
2022-08-07T00:13:28.459Z,998.39
2022-08-07T00:14:30.992Z,998.41
2022-08-07T00:15:38.328Z,998.38
2022-08-07T00:16:33.576Z,998.39
2022-08-07T00:17:35.894Z,998.39
2022-08-07T00:18:36.912Z,998.38
2022-08-07T00:20:02.773Z,998.37
2022-08-07T00:20:40.528Z,998.37
2022-08-07T00:21:56.678Z,998.37
2022-08-07T00:22:43.985Z,998.33
2022-08-07T00:23:45.608Z,998.33
2022-08-07T00:24:47.338Z,998.28
2022-08-07T00:25:51.888Z,998.3
2022-08-07T00:27:05.975Z,998.29
2022-08-07T00:27:56.492Z,998.31
2022-08-07T00:28:56.688Z,998.28
2022-08-07T00:29:56.149Z,998.31
2022-08-07T00:30:57.812Z,998.32
2022-08-07T00:31:59.497Z,998.32
2022-08-07T00:33:02.222Z,998.3
2022-08-07T00:34:03.065Z,998.29
2022-08-07T00:35:04.666Z,998.29
2022-08-07T00:36:06.420Z,998.28
2022-08-07T00:37:08.149Z,998.25
2022-08-07T00:38:09.889Z,998.31
2022-08-07T00:39:16.119Z,998.3
2022-08-07T00:40:14.062Z,998.26
2022-08-07T00:41:15.329Z,998.26
2022-08-07T00:42:16.819Z,998.19
2022-08-07T00:44:00.725Z,998.28
2022-08-07T00:44:20.430Z,998.24
2022-08-07T00:45:22.083Z,998.23
2022-08-07T00:46:23.905Z,998.22
2022-08-07T00:48:07.745Z,998.19
2022-08-07T00:48:32.033Z,998.23
2022-08-07T00:50:20.850Z,998.16
2022-08-07T00:50:46.286Z,998.18
2022-08-07T00:51:57.581Z,998.18
2022-08-07T00:52:34.158Z,998.17
2022-08-07T00:53:38.808Z,998.16
2022-08-07T00:54:37.627Z,998.19
2022-08-07T00:56:00.438Z,998.19
2022-08-07T00:56:41.093Z,998.16
2022-08-07T00:57:55.394Z,998.19
2022-08-07T00:58:47.106Z,998.2
2022-08-07T00:59:46.140Z,998.17
2022-08-07T01:00:51.365Z,998.16
2022-08-07T01:01:49.696Z,998.17
2022-08-07T01:02:51.353Z,998.18
2022-08-07T01:03:56.551Z,998.16
2022-08-07T01:04:55.323Z,998.18
2022-08-07T01:05:56.700Z,998.16
2022-08-07T01:06:58.422Z,998.11
2022-08-07T01:08:00.392Z,998.13
2022-08-07T01:09:02.780Z,998.14
2022-08-07T01:10:06.114Z,998.11
2022-08-07T01:11:23.663Z,998.15
2022-08-07T01:12:28.510Z,998.12
2022-08-07T01:13:08.701Z,998.08
2022-08-07T01:14:10.501Z,998.09
2022-08-07T01:15:16.888Z,998.04
2022-08-07T01:16:13.900Z,998.06
2022-08-07T01:17:15.647Z,998.02
2022-08-07T01:18:17.765Z,997.99
2022-08-07T01:19:19.842Z,998.03
2022-08-07T01:20:20.839Z,998.04
2022-08-07T01:21:24.399Z,998.04
2022-08-07T01:22:29.148Z,998.01
2022-08-07T01:23:35.444Z,997.99
2022-08-07T01:24:27.837Z,998
2022-08-07T01:25:54.326Z,998.01
2022-08-07T01:26:31.391Z,998.02
2022-08-07T01:27:33.066Z,998.02
2022-08-07T01:28:34.778Z,997.99
2022-08-07T01:29:36.506Z,998.03
2022-08-07T01:30:38.251Z,997.99
2022-08-07T01:31:42.589Z,997.99
2022-08-07T01:32:41.646Z,997.95
2022-08-07T01:33:55.779Z,997.98
2022-08-07T01:34:47.160Z,998.01
2022-08-07T01:35:54.194Z,998.01
2022-08-07T01:36:52.743Z,998
2022-08-07T01:37:50.457Z,998.01
2022-08-07T01:38:52.145Z,997.99
2022-08-07T01:39:53.968Z,997.96
2022-08-07T01:40:55.674Z,998.01
2022-08-07T01:42:37.806Z,997.96
2022-08-07T01:42:59.306Z,997.97
2022-08-07T01:44:01.612Z,997.94
2022-08-07T01:45:02.469Z,997.99
2022-08-07T01:46:08.322Z,997.99
2022-08-07T01:47:14.613Z,998.03
2022-08-07T01:48:29.747Z,998
2022-08-07T01:49:09.529Z,997.98
2022-08-07T01:50:11.193Z,998
2022-08-07T01:51:39.316Z,998.01
2022-08-07T01:52:15.347Z,998.03
2022-08-07T01:53:21.585Z,998.01
2022-08-07T01:54:33.340Z,997.98
2022-08-07T01:55:22.280Z,997.98
2022-08-07T01:56:21.673Z,997.98
2022-08-07T01:57:24.758Z,997.99
2022-08-07T01:58:29.276Z,997.98
2022-08-07T01:59:31.034Z,998
2022-08-07T02:00:29.170Z,998
2022-08-07T02:01:59.843Z,997.98
2022-08-07T02:03:11.335Z,997.93
2022-08-07T02:03:48.593Z,997.97
2022-08-07T02:04:35.441Z,997.94
2022-08-07T02:05:47.968Z,997.96
2022-08-07T02:06:38.926Z,997.94
2022-08-07T02:07:49.869Z,997.92
2022-08-07T02:08:42.684Z,997.95
2022-08-07T02:09:52.647Z,997.92
2022-08-07T02:10:53.423Z,997.92
2022-08-07T02:12:03.645Z,997.94
2022-08-07T02:12:50.321Z,997.96
2022-08-07T02:14:00.829Z,997.89
2022-08-07T02:14:52.817Z,997.92
2022-08-07T02:15:54.566Z,997.92
2022-08-07T02:16:56.367Z,997.91
2022-08-07T02:17:58.189Z,997.87
2022-08-07T02:18:59.844Z,997.93
2022-08-07T02:20:04.108Z,997.89
2022-08-07T02:21:06.919Z,997.91
2022-08-07T02:22:07.918Z,997.88
2022-08-07T02:23:06.639Z,997.87
2022-08-07T02:24:08.532Z,997.88
2022-08-07T02:25:13.889Z,997.85
2022-08-07T02:26:32.446Z,997.89
2022-08-07T02:27:13.598Z,997.89
2022-08-07T02:28:15.448Z,997.86
2022-08-07T02:29:17.055Z,997.87
2022-08-07T02:30:18.820Z,997.89
2022-08-07T02:31:29.159Z,997.92
2022-08-07T02:32:23.416Z,997.92
2022-08-07T02:33:24.338Z,997.92
2022-08-07T02:34:25.742Z,997.9
2022-08-07T02:36:28.943Z,997.9
2022-08-07T02:36:32.671Z,997.91
2022-08-07T02:37:34.086Z,997.87
2022-08-07T02:38:32.687Z,997.89
2022-08-07T02:39:42.843Z,997.87
2022-08-07T02:40:36.611Z,997.85
2022-08-07T02:41:38.284Z,997.85
2022-08-07T02:42:39.631Z,997.85
2022-08-07T02:43:41.390Z,997.8
2022-08-07T02:44:48.024Z,997.8
2022-08-07T02:46:00.613Z,997.88
2022-08-07T02:46:52.532Z,997.84
2022-08-07T02:47:49.195Z,997.87
2022-08-07T02:48:55.011Z,997.86
2022-08-07T02:49:58.223Z,997.86
2022-08-07T02:50:53.813Z,997.88
2022-08-07T02:51:55.224Z,997.84
2022-08-07T02:53:00.909Z,997.86
2022-08-07T02:53:58.681Z,997.83
2022-08-07T02:55:00.412Z,997.88
2022-08-07T02:56:05.768Z,997.92
2022-08-07T02:57:06.587Z,997.87
2022-08-07T02:58:05.744Z,997.85
2022-08-07T02:59:07.486Z,997.84
2022-08-07T03:00:11.077Z,997.82
2022-08-07T03:01:18.566Z,997.83
2022-08-07T03:02:12.618Z,997.76
2022-08-07T03:03:14.281Z,997.78
2022-08-07T03:04:16.025Z,997.75
2022-08-07T03:05:20.662Z,997.72
2022-08-07T03:06:26.193Z,997.72
2022-08-07T03:07:21.506Z,997.66
2022-08-07T03:08:26.931Z,997.68
2022-08-07T03:09:41.796Z,997.72
2022-08-07T03:10:26.556Z,997.62
2022-08-07T03:11:28.405Z,997.73
2022-08-07T03:12:30.891Z,997.69
2022-08-07T03:13:38.698Z,997.71
2022-08-07T03:14:33.360Z,997.74
2022-08-07T03:15:47.925Z,997.76
2022-08-07T03:16:38.476Z,997.75
2022-08-07T03:17:53.479Z,997.75
2022-08-07T03:18:40.362Z,997.72
2022-08-07T03:19:42.148Z,997.72
2022-08-07T03:20:43.820Z,997.68
2022-08-07T03:21:50.824Z,997.68
2022-08-07T03:22:50.294Z,997.7
2022-08-07T03:24:17.875Z,997.71
2022-08-07T03:24:50.712Z,997.71
2022-08-07T03:25:59.772Z,997.69
2022-08-07T03:26:58.349Z,997.68
2022-08-07T03:27:59.216Z,997.65
2022-08-07T03:28:57.663Z,997.68
2022-08-07T03:29:59.370Z,997.68
2022-08-07T03:31:01.254Z,997.68
2022-08-07T03:32:02.849Z,997.68
2022-08-07T03:33:04.641Z,997.69
2022-08-07T03:34:06.443Z,997.68
2022-08-07T03:35:17.703Z,997.68
2022-08-07T03:36:09.769Z,997.67
2022-08-07T03:37:12.509Z,997.64
2022-08-07T03:38:13.506Z,997.65
2022-08-07T03:39:15.178Z,997.62
2022-08-07T03:40:17.139Z,997.62
2022-08-07T03:41:18.511Z,997.58
2022-08-07T03:42:20.184Z,997.61
2022-08-07T03:43:22.047Z,997.59
2022-08-07T03:44:31.823Z,997.59
2022-08-07T03:45:30.736Z,997.59
2022-08-07T03:46:27.246Z,997.58
2022-08-07T03:47:29.557Z,997.62
2022-08-07T03:48:30.584Z,997.59
2022-08-07T03:49:32.322Z,997.6
2022-08-07T03:50:34.847Z,997.61
2022-08-07T03:51:47.518Z,997.6
2022-08-07T03:52:37.654Z,997.62
2022-08-07T03:54:05.597Z,997.62
2022-08-07T03:54:54.437Z,997.63
2022-08-07T03:55:57.884Z,997.62
2022-08-07T03:57:03.589Z,997.63
2022-08-07T03:59:05.688Z,997.61
2022-08-07T03:59:08.019Z,997.63
2022-08-07T04:00:02.601Z,997.6
2022-08-07T04:00:52.645Z,997.61
2022-08-07T04:01:53.286Z,997.57
2022-08-07T04:02:56.880Z,997.61
2022-08-07T04:03:56.593Z,997.58
2022-08-07T04:04:58.399Z,997.56
2022-08-07T04:06:00.079Z,997.59
2022-08-07T04:07:01.798Z,997.61
2022-08-07T04:08:03.532Z,997.59
2022-08-07T04:09:05.271Z,997.62
2022-08-07T04:10:07.149Z,997.65
2022-08-07T04:12:24.345Z,997.63
2022-08-07T04:12:25.932Z,997.58
2022-08-07T04:13:15.183Z,997.64
2022-08-07T04:14:38.520Z,997.66
2022-08-07T04:15:15.684Z,997.68
2022-08-07T04:16:30.111Z,997.7
2022-08-07T04:17:21.199Z,997.67
2022-08-07T04:18:57.970Z,997.67
2022-08-07T04:19:22.701Z,997.69
2022-08-07T04:20:24.488Z,997.71
2022-08-07T04:21:26.151Z,997.69
2022-08-07T04:22:29.566Z,997.68
2022-08-07T04:23:43.225Z,997.71
2022-08-07T04:24:38.702Z,997.67
2022-08-07T04:25:39.199Z,997.67
2022-08-07T04:26:34.763Z,997.68
2022-08-07T04:27:44.186Z,997.66
2022-08-07T04:28:38.412Z,997.68
2022-08-07T04:29:58.935Z,997.66
2022-08-07T04:30:55.331Z,997.66
2022-08-07T04:32:03.192Z,997.68
2022-08-07T04:32:48.068Z,997.69
2022-08-07T04:33:46.888Z,997.72
2022-08-07T04:34:48.698Z,997.74
2022-08-07T04:35:51.210Z,997.74
2022-08-07T04:36:52.225Z,997.76
2022-08-07T04:38:03.786Z,997.82
2022-08-07T04:38:55.701Z,997.85
2022-08-07T04:39:57.411Z,997.8
2022-08-07T04:40:59.170Z,997.76
2022-08-07T04:42:00.838Z,997.77
2022-08-07T04:43:03.621Z,997.8
2022-08-07T04:44:13.062Z,997.82
2022-08-07T04:45:07.886Z,997.83
2022-08-07T04:46:07.708Z,997.8
2022-08-07T04:47:09.531Z,997.82
2022-08-07T04:48:11.557Z,997.83
2022-08-07T04:49:24.207Z,997.88
2022-08-07T04:50:14.776Z,997.9
2022-08-07T04:51:16.423Z,997.94
2022-08-07T04:52:18.414Z,997.96
2022-08-07T04:53:40.071Z,997.92
2022-08-07T04:54:29.884Z,997.94
2022-08-07T04:58:07.600Z,997.91
2022-08-07T04:58:10.152Z,997.94
2022-08-07T04:58:15.998Z,997.95
2022-08-07T04:58:49.569Z,997.99
2022-08-07T05:00:09.948Z,997.97
2022-08-07T05:00:32.504Z,997.98
2022-08-07T05:01:33.790Z,997.98
2022-08-07T05:02:35.545Z,997.99
2022-08-07T05:04:06.392Z,997.98
2022-08-07T05:04:47.300Z,997.98
2022-08-07T05:05:53.523Z,997.97
2022-08-07T05:06:43.019Z,998.01
2022-08-07T05:07:48.228Z,997.97
2022-08-07T05:09:00.534Z,998.02
2022-08-07T05:09:47.685Z,998.01
2022-08-07T05:10:49.372Z,998.03
2022-08-07T05:11:57.716Z,997.99
2022-08-07T05:12:55.257Z,998.07
2022-08-07T05:14:56.173Z,998.04
2022-08-07T05:15:03.196Z,998.03
2022-08-07T05:15:58.130Z,998.02
2022-08-07T05:16:59.873Z,998.05
2022-08-07T05:18:01.786Z,998.04
2022-08-07T05:19:03.201Z,998.06
2022-08-07T05:20:09.670Z,998.08
2022-08-07T05:21:06.685Z,998.1
2022-08-07T05:22:08.473Z,998.11
2022-08-07T05:23:15.813Z,998.09
2022-08-07T05:24:11.885Z,998.08
2022-08-07T05:25:25.877Z,998.14
2022-08-07T05:26:23.746Z,998.09
2022-08-07T05:28:02.016Z,998.11
2022-08-07T05:28:23.095Z,998.16
2022-08-07T05:29:20.558Z,998.12
2022-08-07T05:30:30.311Z,998.14
2022-08-07T05:31:24.042Z,998.06
2022-08-07T05:32:25.827Z,998.12
2022-08-07T05:33:27.639Z,998.16
2022-08-07T05:34:29.301Z,998.13
2022-08-07T05:35:33.595Z,998.15
2022-08-07T05:36:35.626Z,998.12
2022-08-07T05:37:40.764Z,998.15
2022-08-07T05:39:01.457Z,998.17
2022-08-07T05:40:13.990Z,998.17
2022-08-07T05:40:51.461Z,998.17
2022-08-07T05:42:01.823Z,998.16
2022-08-07T05:42:43.105Z,998.18
2022-08-07T05:44:08.073Z,998.16
2022-08-07T05:44:53.033Z,998.19
2022-08-07T05:45:48.578Z,998.18
2022-08-07T05:46:51.239Z,998.22
2022-08-07T05:48:02.373Z,998.19
2022-08-07T05:48:58.334Z,998.2
2022-08-07T05:49:55.387Z,998.26
2022-08-07T05:50:57.041Z,998.22
2022-08-07T05:51:58.859Z,998.22
2022-08-07T05:53:00.619Z,998.24
2022-08-07T05:54:12.001Z,998.26
2022-08-07T05:55:10.275Z,998.31
2022-08-07T05:56:12.538Z,998.29
2022-08-07T05:57:07.513Z,998.26
2022-08-07T05:58:09.186Z,998.32
2022-08-07T05:59:10.979Z,998.32
2022-08-07T06:00:15.971Z,998.27
2022-08-07T06:01:14.318Z,998.32
2022-08-07T06:02:21.502Z,998.27
2022-08-07T06:03:17.795Z,998.33
2022-08-07T06:04:19.589Z,998.33
2022-08-07T06:05:25.986Z,998.29
2022-08-07T06:06:23.008Z,998.33
2022-08-07T06:08:14.976Z,998.37
2022-08-07T06:08:30.803Z,998.35
2022-08-07T06:10:04.321Z,998.28
2022-08-07T06:10:30.073Z,998.28
2022-08-07T06:11:31.668Z,998.34
2022-08-07T06:12:33.419Z,998.31
2022-08-07T06:14:12.148Z,998.33
2022-08-07T06:14:36.880Z,998.4
2022-08-07T06:15:42.414Z,998.3
2022-08-07T06:16:40.338Z,998.38
2022-08-07T06:17:42.071Z,998.37
2022-08-07T06:18:51.735Z,998.3
2022-08-07T06:19:47.978Z,998.34
2022-08-07T06:20:50.587Z,998.35
2022-08-07T06:22:14.716Z,998.33
2022-08-07T06:23:02.455Z,998.31
2022-08-07T06:24:45.691Z,998.29
2022-08-07T06:24:58.442Z,998.26
2022-08-07T06:25:57.199Z,998.35
2022-08-07T06:26:57.754Z,998.31
2022-08-07T06:28:01.896Z,998.31
2022-08-07T06:29:01.611Z,998.32
2022-08-07T06:30:03.032Z,998.25
2022-08-07T06:31:07.672Z,998.23
2022-08-07T06:32:06.360Z,998.23
2022-08-07T06:33:16.296Z,998.26
2022-08-07T06:34:09.842Z,998.26
2022-08-07T06:35:18.041Z,998.26
2022-08-07T06:36:14.238Z,998.25
2022-08-07T06:37:17.184Z,998.2
2022-08-07T06:38:20.139Z,998.27
2022-08-07T06:40:13.001Z,998.27
2022-08-07T06:40:21.338Z,998.23
2022-08-07T06:42:01.028Z,998.2
2022-08-07T06:42:26.630Z,998.21
2022-08-07T06:43:25.570Z,998.22
2022-08-07T06:44:27.297Z,998.18
2022-08-07T06:45:28.964Z,998.22
2022-08-07T06:46:35.017Z,998.22
2022-08-07T06:47:44.338Z,998.21
2022-08-07T06:48:34.289Z,998.21
2022-08-07T06:49:35.851Z,998.18
2022-08-07T06:50:37.621Z,998.21
2022-08-07T06:51:49.571Z,998.18
2022-08-07T06:52:41.048Z,998.16
2022-08-07T06:55:28.188Z,998.14
2022-08-07T06:55:31.287Z,998.16
2022-08-07T06:55:53.934Z,998.14
2022-08-07T06:56:49.474Z,998.11
2022-08-07T06:57:51.991Z,998.12
2022-08-07T07:00:12.145Z,998.08
2022-08-07T07:00:12.819Z,998.12
2022-08-07T07:00:54.951Z,998.1
2022-08-07T07:01:57.008Z,998.08
2022-08-07T07:03:00.989Z,998.07
2022-08-07T07:04:06.989Z,998.1
2022-08-07T07:05:02.054Z,998.11
2022-08-07T07:06:06.243Z,998.11
2022-08-07T07:07:10.661Z,998.07
2022-08-07T07:08:10.051Z,998.11
2022-08-07T07:09:08.795Z,998.15
2022-08-07T07:10:10.523Z,998.12
2022-08-07T07:11:13.885Z,998.11
2022-08-07T07:12:16.551Z,998.09
2022-08-07T07:13:15.735Z,998.14
2022-08-07T07:14:17.722Z,998.09
2022-08-07T07:15:23.749Z,998.13
2022-08-07T07:16:20.941Z,998.12
2022-08-07T07:17:22.665Z,998.13
2022-08-07T07:18:48.294Z,998.13
2022-08-07T07:19:57.837Z,998.17
2022-08-07T07:20:27.919Z,998.13
2022-08-07T07:22:04.251Z,998.1
2022-08-07T07:22:36.381Z,998.14
2022-08-07T07:24:08.088Z,998.14
2022-08-07T07:24:34.907Z,998.19
2022-08-07T07:26:34.613Z,998.16
2022-08-07T07:26:38.284Z,998.14
2022-08-07T07:28:02.157Z,998.21
2022-08-07T07:28:48.504Z,998.14
2022-08-07T07:30:09.155Z,998.14
2022-08-07T07:30:45.515Z,998.15
2022-08-07T07:31:47.120Z,998.17
2022-08-07T07:32:48.745Z,998.19
2022-08-07T07:33:56.522Z,998.11
2022-08-07T07:34:52.170Z,998.13
2022-08-07T07:36:05.363Z,998.12
2022-08-07T07:36:55.711Z,998.1
2022-08-07T07:38:02.634Z,998.06
2022-08-07T07:38:59.306Z,998.05
2022-08-07T07:40:01.015Z,998.07
2022-08-07T07:41:02.813Z,998.07
2022-08-07T07:42:13.749Z,998.07
2022-08-07T07:43:15.031Z,998.04
2022-08-07T07:44:17.062Z,998.05
2022-08-07T07:45:09.499Z,998.04
2022-08-07T07:46:37.922Z,998.04
2022-08-07T07:47:23.727Z,998.08
2022-08-07T07:48:34.890Z,998
2022-08-07T07:50:34.691Z,998.02
2022-08-07T07:50:35.015Z,998.03
2022-08-07T07:51:19.899Z,997.99
2022-08-07T07:52:21.735Z,997.99
2022-08-07T07:53:25.772Z,998
2022-08-07T07:54:25.110Z,997.98
2022-08-07T07:55:26.982Z,997.93
2022-08-07T07:56:30.370Z,997.9
2022-08-07T07:57:52.476Z,997.86
2022-08-07T07:58:36.922Z,997.89
2022-08-07T07:59:52.799Z,997.9
2022-08-07T08:00:35.803Z,997.87
2022-08-07T08:02:04.061Z,997.9
2022-08-07T08:02:39.042Z,997.91
2022-08-07T08:04:10.254Z,997.94
2022-08-07T08:04:42.545Z,997.95
2022-08-07T08:05:54.762Z,997.9
2022-08-07T08:06:51.914Z,997.89
2022-08-07T08:07:59.734Z,997.9
2022-08-07T08:08:49.556Z,997.92
2022-08-07T08:09:52.151Z,997.88
2022-08-07T08:10:53.003Z,997.85
2022-08-07T08:12:02.767Z,997.87
2022-08-07T08:13:00.083Z,997.85
2022-08-07T08:13:58.192Z,997.95
2022-08-07T08:14:59.939Z,997.91
2022-08-07T08:16:01.552Z,997.9
2022-08-07T08:17:32.442Z,997.9
2022-08-07T08:18:37.073Z,997.88
2022-08-07T08:19:09.843Z,997.89
2022-08-07T08:20:18.507Z,997.9
2022-08-07T08:21:10.201Z,997.91
2022-08-07T08:22:12.005Z,997.88
2022-08-07T08:23:14.453Z,997.84
2022-08-07T08:24:36.075Z,997.87
2022-08-07T08:25:25.034Z,997.91
2022-08-07T08:26:18.903Z,997.94
2022-08-07T08:27:20.720Z,997.88
2022-08-07T08:28:23.991Z,997.88
2022-08-07T08:29:24.214Z,997.86
2022-08-07T08:30:25.822Z,997.9
2022-08-07T08:31:59.137Z,997.9
2022-08-07T08:32:38.550Z,997.87
2022-08-07T08:33:33.086Z,997.88
2022-08-07T08:34:32.808Z,997.87
2022-08-07T08:35:39.318Z,997.85
2022-08-07T08:36:36.351Z,997.87
2022-08-07T08:38:01.705Z,997.83
2022-08-07T08:38:41.115Z,997.83
2022-08-07T08:39:55.109Z,997.83
2022-08-07T08:40:43.823Z,997.81
2022-08-07T08:41:56.959Z,997.83
2022-08-07T08:42:46.697Z,997.83
2022-08-07T08:43:56.269Z,997.84
2022-08-07T08:44:50.121Z,997.8
2022-08-07T08:45:59.209Z,997.8
2022-08-07T08:46:53.770Z,997.79
2022-08-07T08:47:55.437Z,997.78
2022-08-07T08:48:57.223Z,997.78
2022-08-07T08:50:05.090Z,997.82
2022-08-07T08:51:03.409Z,997.76
2022-08-07T08:52:13.802Z,997.79
2022-08-07T08:53:04.027Z,997.74
2022-08-07T08:54:05.707Z,997.75
2022-08-07T08:55:07.720Z,997.75
2022-08-07T08:56:09.244Z,997.73
2022-08-07T08:57:10.923Z,997.72
2022-08-07T08:58:13.160Z,997.76
2022-08-07T08:59:16.441Z,997.76
2022-08-07T09:00:16.144Z,997.67
2022-08-07T09:01:18.679Z,997.77
2022-08-07T09:02:36.601Z,997.71
2022-08-07T09:03:21.366Z,997.76
2022-08-07T09:04:26.130Z,997.74
2022-08-07T09:05:37.017Z,997.75
2022-08-07T09:06:26.673Z,997.76
2022-08-07T09:07:28.772Z,997.73
2022-08-07T09:08:30.161Z,997.73
2022-08-07T09:09:36.555Z,997.74
2022-08-07T09:10:33.457Z,997.68
2022-08-07T09:11:50.342Z,997.69
2022-08-07T09:12:36.929Z,997.66
2022-08-07T09:13:38.800Z,997.61
2022-08-07T09:14:40.454Z,997.65
2022-08-07T09:16:25.930Z,997.67
2022-08-07T09:16:44.015Z,997.69
2022-08-07T09:17:59.262Z,997.64
2022-08-07T09:18:58.226Z,997.68
2022-08-07T09:19:53.657Z,997.68
2022-08-07T09:20:58.032Z,997.68
2022-08-07T09:22:09.577Z,997.68
2022-08-07T09:24:31.058Z,997.69
2022-08-07T09:24:54.865Z,997.65
2022-08-07T09:25:01.637Z,997.64
2022-08-07T09:25:59.545Z,997.65
2022-08-07T09:27:04.700Z,997.66
2022-08-07T09:28:03.518Z,997.62
2022-08-07T09:30:04.214Z,997.65
2022-08-07T09:30:08.833Z,997.64
2022-08-07T09:31:08.584Z,997.57
2022-08-07T09:32:18.713Z,997.59
2022-08-07T09:33:24.277Z,997.61
2022-08-07T09:34:13.352Z,997.58
2022-08-07T09:36:05.425Z,997.61
2022-08-07T09:36:16.824Z,997.52
2022-08-07T09:37:18.720Z,997.57
2022-08-07T09:38:20.279Z,997.53
2022-08-07T09:39:53.589Z,997.55
2022-08-07T09:40:23.921Z,997.56
2022-08-07T09:41:25.624Z,997.52
2022-08-07T09:42:32.996Z,997.51
2022-08-07T09:43:40.622Z,997.49
2022-08-07T09:44:46.512Z,997.48
2022-08-07T09:47:25.128Z,997.5
2022-08-07T09:47:52.709Z,997.48
2022-08-07T09:47:56.007Z,997.52
2022-08-07T09:49:09.421Z,997.51
2022-08-07T09:50:02.860Z,997.43
2022-08-07T09:50:41.144Z,997.43
2022-08-07T09:52:10.225Z,997.48
2022-08-07T09:52:44.713Z,997.46
2022-08-07T09:53:48.898Z,997.46
2022-08-07T09:54:48.053Z,997.44
2022-08-07T09:56:03.443Z,997.47
2022-08-07T09:56:51.577Z,997.38
2022-08-07T09:57:53.314Z,997.4
2022-08-07T09:58:55.112Z,997.38
2022-08-07T10:00:01.220Z,997.37
2022-08-07T10:00:58.634Z,997.34
2022-08-07T10:02:00.502Z,997.27
2022-08-07T10:03:07.866Z,997.24
2022-08-07T10:04:14.242Z,997.2
2022-08-07T10:05:12.090Z,997.24
2022-08-07T10:06:17.325Z,997.22
2022-08-07T10:07:24.561Z,997.17
2022-08-07T10:08:10.660Z,997.13
2022-08-07T10:09:15.227Z,997.14
2022-08-07T10:10:21.981Z,997.14
2022-08-07T10:11:17.027Z,997.12
2022-08-07T10:12:21.694Z,997.16
2022-08-07T10:13:29.780Z,997.12
2022-08-07T10:14:23.110Z,997.11
2022-08-07T10:15:22.962Z,997.08
2022-08-07T10:16:24.539Z,997.07
2022-08-07T10:17:28.144Z,997.1
2022-08-07T10:18:27.997Z,997.1
2022-08-07T10:19:30.191Z,997.09
2022-08-07T10:20:32.007Z,997.04
2022-08-07T10:22:01.198Z,997.05
2022-08-07T10:22:36.715Z,997.04
2022-08-07T10:24:05.993Z,997
2022-08-07T10:24:39.782Z,996.98
2022-08-07T10:25:42.739Z,996.98
2022-08-07T10:26:41.833Z,997.04
2022-08-07T10:27:46.534Z,996.98
2022-08-07T10:28:49.509Z,996.93
2022-08-07T10:29:51.763Z,996.92
2022-08-07T10:30:48.824Z,996.9
2022-08-07T10:31:50.775Z,996.96
2022-08-07T10:32:53.969Z,996.95
2022-08-07T10:34:05.851Z,996.88
2022-08-07T10:34:55.872Z,996.9
2022-08-07T10:36:05.563Z,996.87
2022-08-07T10:36:59.218Z,996.88
2022-08-07T10:38:20.844Z,996.89
2022-08-07T10:39:04.443Z,996.85
2022-08-07T10:40:08.883Z,996.86
2022-08-07T10:41:09.246Z,996.86
2022-08-07T10:42:09.767Z,996.84
2022-08-07T10:43:09.561Z,996.82
2022-08-07T10:44:11.437Z,996.8
2022-08-07T10:45:13.061Z,996.82
2022-08-07T10:46:14.766Z,996.84
2022-08-07T10:47:16.576Z,996.85
2022-08-07T10:48:18.239Z,996.8
2022-08-07T10:49:45.388Z,996.87
2022-08-07T10:50:25.849Z,996.87
2022-08-07T10:51:57.606Z,996.92
2022-08-07T10:52:33.573Z,996.92
2022-08-07T10:53:26.970Z,996.88
2022-08-07T10:54:28.680Z,996.89
2022-08-07T10:55:38.565Z,996.86
2022-08-07T10:56:32.116Z,996.9
2022-08-07T10:57:35.031Z,996.86
2022-08-07T10:58:36.698Z,996.81
2022-08-07T10:59:37.608Z,996.78
2022-08-07T11:00:50.207Z,996.77
2022-08-07T11:01:51.491Z,996.79
2022-08-07T11:02:42.594Z,996.75
2022-08-07T11:03:52.504Z,996.7
2022-08-07T11:04:46.338Z,996.71
2022-08-07T11:05:48.994Z,996.65
2022-08-07T11:06:49.601Z,996.65
2022-08-07T11:07:59.237Z,996.63
2022-08-07T11:08:53.009Z,996.69
2022-08-07T11:10:09.563Z,996.68
2022-08-07T11:10:59.851Z,996.67
2022-08-07T11:11:59.323Z,996.68
2022-08-07T11:13:01.555Z,996.68
2022-08-07T11:14:56.996Z,996.7
2022-08-07T11:15:03.629Z,996.62
2022-08-07T11:16:08.241Z,996.63
2022-08-07T11:17:09.099Z,996.63
2022-08-07T11:18:09.586Z,996.57
2022-08-07T11:19:10.346Z,996.6
2022-08-07T11:20:12.012Z,996.58
2022-08-07T11:21:14.092Z,996.52
2022-08-07T11:22:26.339Z,996.51
2022-08-07T11:23:26.373Z,996.54
2022-08-07T11:24:18.957Z,996.51
2022-08-07T11:25:20.979Z,996.52
2022-08-07T11:26:23.232Z,996.54
2022-08-07T11:28:01.989Z,996.59
2022-08-07T11:28:25.901Z,996.55
2022-08-07T11:29:41.993Z,996.5
2022-08-07T11:30:41.583Z,996.53
2022-08-07T11:31:34.886Z,996.51
2022-08-07T11:32:32.851Z,996.43
2022-08-07T11:33:48.695Z,996.48
2022-08-07T11:34:36.294Z,996.45
2022-08-07T11:35:59.842Z,996.48
2022-08-07T11:36:39.784Z,996.45
2022-08-07T11:37:58.155Z,996.46
2022-08-07T11:38:43.238Z,996.43
2022-08-07T11:39:59.417Z,996.46
2022-08-07T11:40:49.803Z,996.38
2022-08-07T11:42:00.193Z,996.42
2022-08-07T11:42:50.457Z,996.36
2022-08-07T11:44:10.658Z,996.37
2022-08-07T11:44:57.941Z,996.38
2022-08-07T11:45:55.515Z,996.3
2022-08-07T11:46:57.311Z,996.3
2022-08-07T11:48:02.650Z,996.29
2022-08-07T11:49:50.804Z,996.29
2022-08-07T11:50:30.242Z,996.27
2022-08-07T11:51:09.734Z,996.24
2022-08-07T11:52:05.960Z,996.18
2022-08-07T11:53:07.536Z,996.25
2022-08-07T11:54:10.416Z,996.28
2022-08-07T11:55:12.964Z,996.29
2022-08-07T11:56:26.718Z,996.26
2022-08-07T11:57:14.622Z,996.23
2022-08-07T11:58:16.627Z,996.22
2022-08-07T12:00:08.047Z,996.18
2022-08-07T12:00:20.205Z,996.2
2022-08-07T12:01:22.209Z,996.21
2022-08-07T12:02:30.689Z,996.2
2022-08-07T12:03:42.284Z,996.18
2022-08-07T12:04:26.922Z,996.14
2022-08-07T12:05:47.110Z,996.24
2022-08-07T12:06:39.959Z,996.22
2022-08-07T12:07:38.719Z,996.21
2022-08-07T12:08:34.860Z,996.19
2022-08-07T12:09:35.324Z,996.21
2022-08-07T12:10:37.154Z,996.18
2022-08-07T12:11:56.263Z,996.19
2022-08-07T12:12:40.482Z,996.15
2022-08-07T12:13:47.527Z,996.15
2022-08-07T12:14:43.957Z,996.11
2022-08-07T12:16:05.429Z,996.07
2022-08-07T12:16:47.402Z,996.18
2022-08-07T12:17:59.554Z,996.18
2022-08-07T12:18:50.898Z,996.15
2022-08-07T12:20:05.370Z,996.09
2022-08-07T12:20:54.479Z,996
2022-08-07T12:22:39.493Z,996.01
2022-08-07T12:22:58.827Z,996.04
2022-08-07T12:24:07.007Z,996.1
2022-08-07T12:25:02.556Z,996.06
2022-08-07T12:26:23.045Z,996.03
2022-08-07T12:27:04.818Z,996.03
2022-08-07T12:28:09.925Z,995.98
2022-08-07T12:29:08.238Z,996.05
2022-08-07T12:30:09.980Z,996.03
2022-08-07T12:31:11.727Z,996.02
2022-08-07T12:32:13.684Z,996.01
2022-08-07T12:33:23.555Z,995.98
2022-08-07T12:34:16.912Z,995.94
2022-08-07T12:35:19.218Z,995.92
2022-08-07T12:36:20.356Z,995.9
2022-08-07T12:37:23.299Z,995.87
2022-08-07T12:38:30.640Z,995.92
2022-08-07T12:39:42.829Z,995.9
2022-08-07T12:40:48.261Z,995.92
2022-08-07T12:41:49.787Z,995.92
2022-08-07T12:42:32.062Z,995.9
2022-08-07T12:44:03.502Z,995.84
2022-08-07T12:44:34.446Z,995.86
2022-08-07T12:45:36.103Z,995.85
2022-08-07T12:46:37.717Z,995.85
2022-08-07T12:47:40.495Z,995.75
2022-08-07T12:48:52.830Z,995.8
2022-08-07T12:49:51.807Z,995.8
2022-08-07T12:50:48.719Z,995.86
2022-08-07T12:52:11.733Z,995.85
2022-08-07T12:52:48.125Z,995.83